createdAt,value
2019-04-10T00:04:35.073Z,13.60
2019-04-10T00:09:49.809Z,13.50
2019-04-10T00:15:05.147Z,13.50
2019-04-10T00:20:20.790Z,13.50
2019-04-10T00:25:36.826Z,13.50
2019-04-10T00:30:51.638Z,13.40
2019-04-10T00:36:06.344Z,13.40
2019-04-10T00:41:21.830Z,13.40
2019-04-10T00:46:36.482Z,13.40
2019-04-10T00:51:51.943Z,13.30
2019-04-10T00:57:07.302Z,13.30
2019-04-10T01:02:22.501Z,13.30
2019-04-10T01:07:40.154Z,13.30
2019-04-10T01:12:53.182Z,13.20
2019-04-10T01:18:07.806Z,13.20
2019-04-10T01:23:22.568Z,13.20
2019-04-10T01:28:36.808Z,13.20
2019-04-10T01:33:51.276Z,13.10
2019-04-10T01:39:10.405Z,13.10
2019-04-10T01:44:25.229Z,13.10
2019-04-10T01:49:40.161Z,13.10
2019-04-10T01:54:55.454Z,13.00
2019-04-10T02:00:11.962Z,13.00
2019-04-10T02:05:26.275Z,13.00
2019-04-10T02:10:41.079Z,13.00
2019-04-10T02:15:56.567Z,12.90
2019-04-10T02:21:13.485Z,12.90
2019-04-10T02:26:27.809Z,12.90
2019-04-10T02:31:44.039Z,12.90
2019-04-10T02:37:00.510Z,12.80
2019-04-10T02:42:16.376Z,12.80
2019-04-10T02:47:32.424Z,12.80
2019-04-10T02:52:50.106Z,12.80
2019-04-10T02:58:03.218Z,12.70
2019-04-10T03:03:18.065Z,12.70
2019-04-10T03:08:46.788Z,12.70
2019-04-10T03:13:49.212Z,12.60
2019-04-10T03:19:03.946Z,12.60
2019-04-10T03:24:19.143Z,12.60
2019-04-10T03:29:33.849Z,12.50
2019-04-10T03:34:49.062Z,12.50
2019-04-10T03:40:04.937Z,12.50
2019-04-10T03:45:20.220Z,12.50
2019-04-10T03:50:36.119Z,12.40
2019-04-10T03:55:51.116Z,12.40
2019-04-10T04:01:06.945Z,12.40
2019-04-10T04:06:21.725Z,12.30
2019-04-10T04:11:37.746Z,12.30
2019-04-10T04:16:52.484Z,12.30
2019-04-10T04:22:06.870Z,12.30
2019-04-10T04:27:21.607Z,12.20
2019-04-10T04:32:37.946Z,12.20
2019-04-10T04:37:52.801Z,12.20
2019-04-10T04:43:07.882Z,12.20
2019-04-10T04:48:22.714Z,12.20
2019-04-10T04:53:37.346Z,12.10
2019-04-10T04:58:53.880Z,12.10
2019-04-10T05:04:09.023Z,12.10
2019-04-10T05:09:31.182Z,12.00
2019-04-10T05:14:39.878Z,12.00
2019-04-10T05:19:54.610Z,12.00
2019-04-10T05:25:09.566Z,12.00
2019-04-10T05:30:25.003Z,12.00
2019-04-10T05:35:39.845Z,11.90
2019-04-10T05:40:55.049Z,11.90
2019-04-10T05:46:11.064Z,11.90
2019-04-10T05:51:25.574Z,11.90
2019-04-10T05:56:40.587Z,11.80
2019-04-10T06:01:57.327Z,11.80
2019-04-10T06:07:12.723Z,11.80
2019-04-10T06:12:27.210Z,11.70
2019-04-10T06:17:42.737Z,11.70
2019-04-10T06:22:57.227Z,11.70
2019-04-10T06:28:15.267Z,11.70
2019-04-10T06:33:30.032Z,11.70
2019-04-10T06:38:45.391Z,11.60
2019-04-10T06:44:00.012Z,11.70
2019-04-10T06:49:14.726Z,11.60
2019-04-10T06:54:28.947Z,11.60
2019-04-10T06:59:46.184Z,11.50
2019-04-10T07:05:05.759Z,11.40
2019-04-10T07:10:26.089Z,11.30
2019-04-10T07:15:35.822Z,11.20
2019-04-10T07:20:56.087Z,11.20
2019-04-10T07:26:08.106Z,11.10
2019-04-10T07:31:25.738Z,11.00
2019-04-10T07:36:43.246Z,11.00
2019-04-10T07:42:02.142Z,11.00
2019-04-10T07:47:17.449Z,11.00
2019-04-10T07:52:33.040Z,11.00
2019-04-10T07:57:49.253Z,11.00
2019-04-10T08:03:04.364Z,11.00
2019-04-10T08:08:19.473Z,11.10
2019-04-10T08:13:33.672Z,11.10
2019-04-10T08:18:48.206Z,11.10
2019-04-10T08:24:02.823Z,11.20
2019-04-10T08:29:26.320Z,11.20
2019-04-10T08:34:42.116Z,11.30
2019-04-10T08:39:56.843Z,11.30
2019-04-10T08:45:13.310Z,11.40
2019-04-10T08:50:28.197Z,11.40
2019-04-10T08:55:42.808Z,11.40
2019-04-10T09:00:56.818Z,11.50
2019-04-10T09:06:13.351Z,11.50
2019-04-10T09:11:30.168Z,11.60
2019-04-10T09:16:45.512Z,11.70
2019-04-10T09:22:06.175Z,11.80
2019-04-10T09:27:21.290Z,11.90
2019-04-10T09:32:39.010Z,11.90
2019-04-10T09:37:54.490Z,12.00
2019-04-10T09:43:11.250Z,12.10
2019-04-10T09:48:26.434Z,12.20
2019-04-10T09:53:41.278Z,12.30
2019-04-10T09:58:56.749Z,12.40
2019-04-10T10:04:11.687Z,12.50
2019-04-10T10:09:27.852Z,12.50
2019-04-10T10:14:46.251Z,12.60
2019-04-10T10:20:02.013Z,12.70
2019-04-10T10:25:17.390Z,12.80
2019-04-10T10:30:32.030Z,12.80
2019-04-10T10:35:47.679Z,12.90
2019-04-10T10:41:01.966Z,12.90
2019-04-10T10:46:17.594Z,13.00
2019-04-10T10:51:35.029Z,13.10
2019-04-10T10:56:49.201Z,13.20
2019-04-10T11:02:04.431Z,13.30
2019-04-10T11:07:18.903Z,13.40
2019-04-10T11:12:34.110Z,13.50
2019-04-10T11:17:52.063Z,13.50
2019-04-10T11:23:06.539Z,13.60
2019-04-10T11:28:22.148Z,13.70
2019-04-10T11:33:39.903Z,13.80
2019-04-10T11:39:04.969Z,13.80
2019-04-10T11:44:15.982Z,13.90
2019-04-10T11:49:28.995Z,13.90
2019-04-10T11:54:44.900Z,13.90
2019-04-10T12:00:02.326Z,13.90
2019-04-10T12:05:19.898Z,13.90
2019-04-10T12:15:52.505Z,13.90
2019-04-10T12:21:07.766Z,14.00
2019-04-10T12:26:23.299Z,14.00
2019-04-10T12:31:38.123Z,14.10
2019-04-10T12:36:53.418Z,14.10
2019-04-10T12:42:08.051Z,14.10
2019-04-10T12:47:23.893Z,14.20
2019-04-10T12:52:40.850Z,14.20
2019-04-10T12:58:06.061Z,14.20
2019-04-10T13:03:11.668Z,14.20
2019-04-10T13:08:39.958Z,14.30
2019-04-10T13:13:46.243Z,14.30
2019-04-10T13:19:00.666Z,14.30
2019-04-10T13:24:19.452Z,14.30
2019-04-10T13:29:34.430Z,14.30
2019-04-10T13:34:49.358Z,14.30
2019-04-10T13:40:04.070Z,14.30
2019-04-10T13:45:19.407Z,14.30
2019-04-10T13:50:34.832Z,14.30
2019-04-10T13:55:50.548Z,14.40
2019-04-10T14:01:07.205Z,14.50
2019-04-10T14:06:23.535Z,14.50
2019-04-10T14:11:38.026Z,14.50
2019-04-10T14:16:53.048Z,14.50
2019-04-10T14:22:07.800Z,14.50
2019-04-10T14:27:27.948Z,14.50
2019-04-10T14:32:45.215Z,14.50
2019-04-10T14:38:00.813Z,14.40
2019-04-10T14:43:16.673Z,14.30
2019-04-10T14:48:32.123Z,14.30
2019-04-10T14:53:46.930Z,14.20
2019-04-10T14:59:02.098Z,14.20
2019-04-10T15:04:17.262Z,14.20
2019-04-10T15:09:32.415Z,14.20
2019-04-10T15:14:47.927Z,14.10
2019-04-10T15:20:02.452Z,14.20
2019-04-10T15:25:17.540Z,14.10
2019-04-10T15:30:32.845Z,14.10
2019-04-10T15:35:47.281Z,14.10
2019-04-10T15:41:02.892Z,14.10
2019-04-10T15:46:17.479Z,14.10
2019-04-10T15:51:32.237Z,14.10
2019-04-10T15:56:47.234Z,14.10
2019-04-10T16:02:05.723Z,14.10
2019-04-10T16:07:20.387Z,14.10
2019-04-10T16:12:35.262Z,14.20
2019-04-10T16:18:04.955Z,14.20
2019-04-10T16:23:29.947Z,14.20
2019-04-10T16:28:45.235Z,14.20
2019-04-10T16:34:00.849Z,14.10
2019-04-10T16:39:22.242Z,14.00
2019-04-10T16:44:37.726Z,13.90
2019-04-10T16:49:55.243Z,13.80
2019-04-10T16:55:12.793Z,13.80
2019-04-10T17:00:29.091Z,13.80
2019-04-10T17:05:46.235Z,13.50
2019-04-10T17:11:05.294Z,13.80
2019-04-10T17:16:21.839Z,14.30
2019-04-10T17:21:38.435Z,14.90
2019-04-10T17:26:57.462Z,15.50
2019-04-10T17:32:15.187Z,16.10
2019-04-10T17:37:30.296Z,16.60
2019-04-10T17:42:46.372Z,17.10
2019-04-10T17:48:03.726Z,17.50
2019-04-10T17:53:18.689Z,17.70
2019-04-10T17:58:33.846Z,18.00
2019-04-10T18:03:54.822Z,18.20
2019-04-10T18:09:09.643Z,18.30
2019-04-10T18:14:24.981Z,18.50
2019-04-10T18:19:39.942Z,18.60
2019-04-10T18:24:57.617Z,18.60
2019-04-10T18:30:14.054Z,18.70
2019-04-10T18:35:28.944Z,18.70
2019-04-10T18:40:54.969Z,18.70
2019-04-10T18:46:09.014Z,18.70
2019-04-10T18:51:16.082Z,18.60
2019-04-10T18:56:31.346Z,18.60
2019-04-10T19:02:03.322Z,18.60
2019-04-10T19:07:18.079Z,18.50
2019-04-10T19:12:32.749Z,18.50
2019-04-10T19:17:48.756Z,18.40
2019-04-10T19:23:04.990Z,18.30
2019-04-10T19:28:32.292Z,18.30
2019-04-10T19:33:37.333Z,18.20
2019-04-10T19:38:52.217Z,18.10
2019-04-10T19:44:07.181Z,18.10
2019-04-10T19:49:22.096Z,18.00
2019-04-10T19:54:36.498Z,17.90
2019-04-10T19:59:55.703Z,17.90
2019-04-10T20:05:10.795Z,17.80
2019-04-10T20:10:27.491Z,17.70
2019-04-10T20:15:42.730Z,17.70
2019-04-10T20:21:03.809Z,17.60
2019-04-10T20:26:19.335Z,17.50
2019-04-10T20:31:37.631Z,17.40
2019-04-10T20:36:51.994Z,17.40
2019-04-10T20:42:08.150Z,17.30
2019-04-10T20:47:24.705Z,17.30
2019-04-10T20:52:47.249Z,17.20
2019-04-10T20:58:05.812Z,17.10
2019-04-10T21:03:19.814Z,17.10
2019-04-10T21:08:34.386Z,17.00
2019-04-10T21:13:50.982Z,16.90
2019-04-10T21:19:06.737Z,16.80
2019-04-10T21:24:21.618Z,16.80
2019-04-10T21:29:59.396Z,16.70
2019-04-10T21:35:16.344Z,16.60
2019-04-10T21:40:31.108Z,16.60
2019-04-10T21:45:45.910Z,16.50
2019-04-10T21:51:00.643Z,16.40
2019-04-10T21:56:17.981Z,16.40
2019-04-10T22:01:34.399Z,16.30
2019-04-10T22:07:16.851Z,16.20
2019-04-10T22:12:38.159Z,16.10
2019-04-10T22:17:52.710Z,16.10
2019-04-10T22:23:08.236Z,16.00
2019-04-10T22:28:23.239Z,15.90
2019-04-10T22:33:40.488Z,15.80
2019-04-10T22:38:56.299Z,15.80
2019-04-10T22:44:11.761Z,15.70
2019-04-10T22:49:26.673Z,15.60
2019-04-10T22:54:42.312Z,15.50
2019-04-10T22:59:57.416Z,15.50
2019-04-10T23:05:12.400Z,15.40
2019-04-10T23:10:26.938Z,15.30
2019-04-10T23:15:42.030Z,15.30
2019-04-10T23:20:58.512Z,15.20
2019-04-10T23:26:13.330Z,15.10
2019-04-10T23:31:29.813Z,15.10
2019-04-10T23:36:45.113Z,15.00
2019-04-10T23:42:01.040Z,15.00
2019-04-10T23:47:16.675Z,14.90
2019-04-10T23:52:35.923Z,14.80
2019-04-10T23:57:51.686Z,14.80
